sensor_id;sensor_type;location;lat;lon;timestamp;P1;durP1;ratioP1;P2;durP2;ratioP2
287;SDS011;128;48.770;9.198;2023-12-20T00:01:35;2.03;;;1.40;;
287;SDS011;128;48.770;9.198;2023-12-20T00:04:01;2.70;;;1.80;;
287;SDS011;128;48.770;9.198;2023-12-20T00:06:27;2.53;;;1.53;;
287;SDS011;128;48.770;9.198;2023-12-20T00:08:53;2.17;;;1.63;;
287;SDS011;128;48.770;9.198;2023-12-20T00:11:19;1.83;;;1.23;;
287;SDS011;128;48.770;9.198;2023-12-20T00:13:45;3.33;;;1.50;;
287;SDS011;128;48.770;9.198;2023-12-20T00:16:11;2.40;;;1.30;;
287;SDS011;128;48.770;9.198;2023-12-20T00:18:37;2.10;;;1.50;;
287;SDS011;128;48.770;9.198;2023-12-20T00:21:03;2.50;;;1.30;;
287;SDS011;128;48.770;9.198;2023-12-20T00:23:29;2.07;;;1.23;;
287;SDS011;128;48.770;9.198;2023-12-20T00:25:55;1.93;;;1.40;;
287;SDS011;128;48.770;9.198;2023-12-20T00:28:21;2.20;;;1.30;;
287;SDS011;128;48.770;9.198;2023-12-20T00:30:47;2.03;;;1.33;;
287;SDS011;128;48.770;9.198;2023-12-20T00:33:13;2.00;;;1.33;;
287;SDS011;128;48.770;9.198;2023-12-20T00:35:39;2.13;;;1.30;;
287;SDS011;128;48.770;9.198;2023-12-20T00:38:06;2.23;;;1.20;;
287;SDS011;128;48.770;9.198;2023-12-20T00:40:33;4.07;;;1.40;;
287;SDS011;128;48.770;9.198;2023-12-20T00:42:59;2.20;;;1.23;;
287;SDS011;128;48.770;9.198;2023-12-20T00:45:26;2.13;;;1.33;;
287;SDS011;128;48.770;9.198;2023-12-20T00:47:52;3.23;;;0.87;;
287;SDS011;128;48.770;9.198;2023-12-20T00:50:18;4.10;;;1.40;;
287;SDS011;128;48.770;9.198;2023-12-20T00:52:44;7.80;;;1.60;;
287;SDS011;128;48.770;9.198;2023-12-20T00:55:10;3.10;;;1.47;;
287;SDS011;128;48.770;9.198;2023-12-20T00:57:36;1.50;;;1.20;;
287;SDS011;128;48.770;9.198;2023-12-20T01:00:02;1.50;;;1.17;;
287;SDS011;128;48.770;9.198;2023-12-20T01:02:28;1.67;;;1.20;;
287;SDS011;128;48.770;9.198;2023-12-20T01:04:54;2.23;;;1.27;;
287;SDS011;128;48.770;9.198;2023-12-20T01:07:20;3.47;;;1.00;;
287;SDS011;128;48.770;9.198;2023-12-20T01:09:46;3.30;;;1.80;;
287;SDS011;128;48.770;9.198;2023-12-20T01:12:12;2.50;;;1.80;;
287;SDS011;128;48.770;9.198;2023-12-20T01:14:38;2.73;;;1.80;;
287;SDS011;128;48.770;9.198;2023-12-20T01:17:04;2.73;;;1.63;;
287;SDS011;128;48.770;9.198;2023-12-20T01:19:30;2.43;;;1.27;;
287;SDS011;128;48.770;9.198;2023-12-20T01:21:56;3.43;;;1.73;;
287;SDS011;128;48.770;9.198;2023-12-20T01:24:22;4.73;;;1.63;;
287;SDS011;128;48.770;9.198;2023-12-20T01:26:48;6.43;;;1.50;;
287;SDS011;128;48.770;9.198;2023-12-20T01:29:14;1.73;;;1.20;;
287;SDS011;128;48.770;9.198;2023-12-20T01:31:40;1.90;;;1.20;;
287;SDS011;128;48.770;9.198;2023-12-20T01:34:06;1.80;;;1.17;;
287;SDS011;128;48.770;9.198;2023-12-20T01:36:32;2.50;;;1.40;;
287;SDS011;128;48.770;9.198;2023-12-20T01:38:58;2.40;;;1.50;;
287;SDS011;128;48.770;9.198;2023-12-20T01:41:24;5.87;;;1.70;;
287;SDS011;128;48.770;9.198;2023-12-20T01:43:50;1.97;;;1.37;;
287;SDS011;128;48.770;9.198;2023-12-20T01:46:18;1.37;;;1.07;;
287;SDS011;128;48.770;9.198;2023-12-20T01:48:44;2.40;;;1.43;;
287;SDS011;128;48.770;9.198;2023-12-20T01:51:10;3.13;;;1.80;;
287;SDS011;128;48.770;9.198;2023-12-20T01:53:36;2.30;;;1.50;;
287;SDS011;128;48.770;9.198;2023-12-20T01:56:02;3.03;;;1.40;;
287;SDS011;128;48.770;9.198;2023-12-20T01:58:29;2.67;;;2.47;;
287;SDS011;128;48.770;9.198;2023-12-20T02:00:55;2.20;;;1.60;;
287;SDS011;128;48.770;9.198;2023-12-20T02:03:21;1.87;;;1.20;;
287;SDS011;128;48.770;9.198;2023-12-20T02:05:47;4.17;;;1.33;;
287;SDS011;128;48.770;9.198;2023-12-20T02:08:13;3.57;;;1.50;;
287;SDS011;128;48.770;9.198;2023-12-20T02:10:39;2.10;;;1.37;;
287;SDS011;128;48.770;9.198;2023-12-20T02:13:05;4.33;;;1.50;;
287;SDS011;128;48.770;9.198;2023-12-20T02:15:31;3.20;;;1.47;;
287;SDS011;128;48.770;9.198;2023-12-20T02:17:57;1.77;;;1.20;;
287;SDS011;128;48.770;9.198;2023-12-20T02:20:23;3.23;;;1.93;;
287;SDS011;128;48.770;9.198;2023-12-20T02:22:49;6.00;;;1.73;;
287;SDS011;128;48.770;9.198;2023-12-20T02:25:15;2.97;;;1.13;;
287;SDS011;128;48.770;9.198;2023-12-20T02:27:41;3.97;;;1.60;;
287;SDS011;128;48.770;9.198;2023-12-20T02:30:07;3.40;;;1.57;;
287;SDS011;128;48.770;9.198;2023-12-20T02:32:33;2.83;;;1.67;;
287;SDS011;128;48.770;9.198;2023-12-20T02:34:59;4.33;;;1.93;;
287;SDS011;128;48.770;9.198;2023-12-20T02:37:25;2.83;;;1.60;;
287;SDS011;128;48.770;9.198;2023-12-20T02:39:51;3.50;;;1.80;;
287;SDS011;128;48.770;9.198;2023-12-20T02:42:17;2.43;;;1.60;;
287;SDS011;128;48.770;9.198;2023-12-20T02:44:43;5.80;;;1.73;;
287;SDS011;128;48.770;9.198;2023-12-20T02:47:09;3.73;;;2.53;;
287;SDS011;128;48.770;9.198;2023-12-20T02:49:35;3.10;;;1.70;;
287;SDS011;128;48.770;9.198;2023-12-20T02:52:01;2.30;;;1.60;;
287;SDS011;128;48.770;9.198;2023-12-20T02:54:27;3.10;;;2.13;;
287;SDS011;128;48.770;9.198;2023-12-20T02:56:53;2.50;;;1.70;;
287;SDS011;128;48.770;9.198;2023-12-20T02:59:18;2.43;;;1.87;;
287;SDS011;128;48.770;9.198;2023-12-20T03:01:45;3.80;;;1.93;;
287;SDS011;128;48.770;9.198;2023-12-20T03:04:11;6.20;;;2.10;;
287;SDS011;128;48.770;9.198;2023-12-20T03:06:37;4.77;;;2.03;;
287;SDS011;128;48.770;9.198;2023-12-20T03:09:03;3.40;;;1.57;;
287;SDS011;128;48.770;9.198;2023-12-20T03:11:29;3.87;;;1.47;;
287;SDS011;128;48.770;9.198;2023-12-20T03:13:55;2.97;;;1.90;;
287;SDS011;128;48.770;9.198;2023-12-20T03:16:21;3.83;;;1.20;;
287;SDS011;128;48.770;9.198;2023-12-20T03:18:47;3.47;;;1.50;;
287;SDS011;128;48.770;9.198;2023-12-20T03:21:13;2.80;;;1.80;;
287;SDS011;128;48.770;9.198;2023-12-20T03:23:39;3.07;;;1.50;;
287;SDS011;128;48.770;9.198;2023-12-20T03:26:09;1.90;;;1.17;;
287;SDS011;128;48.770;9.198;2023-12-20T03:28:35;9.10;;;1.47;;
287;SDS011;128;48.770;9.198;2023-12-20T03:31:02;1.67;;;1.00;;
287;SDS011;128;48.770;9.198;2023-12-20T03:33:28;2.10;;;1.10;;
287;SDS011;128;48.770;9.198;2023-12-20T03:35:54;3.23;;;1.10;;
287;SDS011;128;48.770;9.198;2023-12-20T03:38:20;2.13;;;1.13;;
287;SDS011;128;48.770;9.198;2023-12-20T03:40:46;5.40;;;0.80;;
287;SDS011;128;48.770;9.198;2023-12-20T03:43:12;2.93;;;1.30;;
287;SDS011;128;48.770;9.198;2023-12-20T03:45:38;2.53;;;1.00;;
287;SDS011;128;48.770;9.198;2023-12-20T03:48:04;1.30;;;0.80;;
287;SDS011;128;48.770;9.198;2023-12-20T03:50:30;1.30;;;0.70;;
287;SDS011;128;48.770;9.198;2023-12-20T03:52:56;1.97;;;0.90;;
287;SDS011;128;48.770;9.198;2023-12-20T03:55:22;1.20;;;0.70;;
287;SDS011;128;48.770;9.198;2023-12-20T03:57:48;0.80;;;0.60;;
287;SDS011;128;48.770;9.198;2023-12-20T04:00:14;2.03;;;0.80;;
287;SDS011;128;48.770;9.198;2023-12-20T04:02:40;1.53;;;0.70;;
287;SDS011;128;48.770;9.198;2023-12-20T04:05:07;1.30;;;0.70;;
287;SDS011;128;48.770;9.198;2023-12-20T04:07:33;1.00;;;0.67;;
287;SDS011;128;48.770;9.198;2023-12-20T04:09:59;0.93;;;0.57;;
287;SDS011;128;48.770;9.198;2023-12-20T04:12:27;1.53;;;0.80;;
287;SDS011;128;48.770;9.198;2023-12-20T04:14:53;1.00;;;0.70;;
287;SDS011;128;48.770;9.198;2023-12-20T04:17:19;1.10;;;0.60;;
287;SDS011;128;48.770;9.198;2023-12-20T04:19:47;1.53;;;0.60;;
287;SDS011;128;48.770;9.198;2023-12-20T04:22:13;1.30;;;0.53;;
287;SDS011;128;48.770;9.198;2023-12-20T04:24:39;1.00;;;0.60;;
287;SDS011;128;48.770;9.198;2023-12-20T04:27:07;0.90;;;0.50;;
287;SDS011;128;48.770;9.198;2023-12-20T04:29:33;0.80;;;0.50;;
287;SDS011;128;48.770;9.198;2023-12-20T04:31:59;1.07;;;0.60;;
287;SDS011;128;48.770;9.198;2023-12-20T04:34:25;2.60;;;0.67;;
287;SDS011;128;48.770;9.198;2023-12-20T04:36:51;0.80;;;0.50;;
287;SDS011;128;48.770;9.198;2023-12-20T04:39:17;0.80;;;0.50;;
287;SDS011;128;48.770;9.198;2023-12-20T04:41:43;1.00;;;0.60;;
287;SDS011;128;48.770;9.198;2023-12-20T04:44:09;0.90;;;0.60;;
287;SDS011;128;48.770;9.198;2023-12-20T04:46:34;1.20;;;0.70;;
287;SDS011;128;48.770;9.198;2023-12-20T04:49:00;1.00;;;0.60;;
287;SDS011;128;48.770;9.198;2023-12-20T04:51:27;2.80;;;0.70;;
287;SDS011;128;48.770;9.198;2023-12-20T04:53:53;5.90;;;0.60;;
287;SDS011;128;48.770;9.198;2023-12-20T04:56:18;0.80;;;0.53;;
287;SDS011;128;48.770;9.198;2023-12-20T04:58:44;0.80;;;0.50;;
287;SDS011;128;48.770;9.198;2023-12-20T05:01:10;0.90;;;0.50;;
287;SDS011;128;48.770;9.198;2023-12-20T05:03:37;1.33;;;0.60;;
287;SDS011;128;48.770;9.198;2023-12-20T05:06:03;1.17;;;0.60;;
287;SDS011;128;48.770;9.198;2023-12-20T05:08:29;1.93;;;0.60;;
287;SDS011;128;48.770;9.198;2023-12-20T05:10:55;1.00;;;0.50;;
287;SDS011;128;48.770;9.198;2023-12-20T05:13:21;1.73;;;0.80;;
287;SDS011;128;48.770;9.198;2023-12-20T05:15:47;0.90;;;0.50;;
287;SDS011;128;48.770;9.198;2023-12-20T05:18:13;2.37;;;1.37;;
287;SDS011;128;48.770;9.198;2023-12-20T05:20:39;1.03;;;0.60;;
287;SDS011;128;48.770;9.198;2023-12-20T05:23:05;1.10;;;0.60;;
287;SDS011;128;48.770;9.198;2023-12-20T05:25:31;0.80;;;0.50;;
287;SDS011;128;48.770;9.198;2023-12-20T05:27:57;0.80;;;0.50;;
287;SDS011;128;48.770;9.198;2023-12-20T05:30:23;1.73;;;1.50;;
287;SDS011;128;48.770;9.198;2023-12-20T05:32:49;2.30;;;0.70;;
287;SDS011;128;48.770;9.198;2023-12-20T05:35:16;0.90;;;0.50;;
287;SDS011;128;48.770;9.198;2023-12-20T05:37:42;1.63;;;0.70;;
287;SDS011;128;48.770;9.198;2023-12-20T05:40:08;0.80;;;0.50;;
287;SDS011;128;48.770;9.198;2023-12-20T05:42:37;1.80;;;0.83;;
287;SDS011;128;48.770;9.198;2023-12-20T05:45:03;1.03;;;0.80;;
287;SDS011;128;48.770;9.198;2023-12-20T05:47:30;1.20;;;0.60;;
287;SDS011;128;48.770;9.198;2023-12-20T05:49:56;2.30;;;0.97;;
287;SDS011;128;48.770;9.198;2023-12-20T05:52:22;1.20;;;0.60;;
287;SDS011;128;48.770;9.198;2023-12-20T05:54:48;3.47;;;0.80;;
287;SDS011;128;48.770;9.198;2023-12-20T05:57:14;2.20;;;0.70;;
287;SDS011;128;48.770;9.198;2023-12-20T05:59:40;1.90;;;0.80;;
287;SDS011;128;48.770;9.198;2023-12-20T06:02:06;1.47;;;0.77;;
287;SDS011;128;48.770;9.198;2023-12-20T06:04:32;0.97;;;0.60;;
287;SDS011;128;48.770;9.198;2023-12-20T06:06:58;1.30;;;0.67;;
287;SDS011;128;48.770;9.198;2023-12-20T06:09:24;3.00;;;0.70;;
287;SDS011;128;48.770;9.198;2023-12-20T06:11:50;2.90;;;0.90;;
287;SDS011;128;48.770;9.198;2023-12-20T06:14:16;1.60;;;0.83;;
287;SDS011;128;48.770;9.198;2023-12-20T06:16:42;1.73;;;0.93;;
287;SDS011;128;48.770;9.198;2023-12-20T06:19:08;1.30;;;0.67;;
287;SDS011;128;48.770;9.198;2023-12-20T06:21:34;2.17;;;0.90;;
287;SDS011;128;48.770;9.198;2023-12-20T06:24:00;4.10;;;0.90;;
287;SDS011;128;48.770;9.198;2023-12-20T06:26:26;2.07;;;0.77;;
287;SDS011;128;48.770;9.198;2023-12-20T06:28:52;1.47;;;0.90;;
287;SDS011;128;48.770;9.198;2023-12-20T06:31:18;1.47;;;0.80;;
287;SDS011;128;48.770;9.198;2023-12-20T06:33:43;1.10;;;0.70;;
287;SDS011;128;48.770;9.198;2023-12-20T06:36:12;2.40;;;1.10;;
287;SDS011;128;48.770;9.198;2023-12-20T06:38:39;4.20;;;1.20;;
287;SDS011;128;48.770;9.198;2023-12-20T06:41:05;11.17;;;1.00;;
287;SDS011;128;48.770;9.198;2023-12-20T06:43:31;1.83;;;1.10;;
287;SDS011;128;48.770;9.198;2023-12-20T06:45:58;1.10;;;0.77;;
287;SDS011;128;48.770;9.198;2023-12-20T06:48:24;6.63;;;1.23;;
287;SDS011;128;48.770;9.198;2023-12-20T06:50:50;2.33;;;1.20;;
287;SDS011;128;48.770;9.198;2023-12-20T06:53:16;2.37;;;0.97;;
287;SDS011;128;48.770;9.198;2023-12-20T06:55:42;2.90;;;1.20;;
287;SDS011;128;48.770;9.198;2023-12-20T06:58:08;1.47;;;1.10;;
287;SDS011;128;48.770;9.198;2023-12-20T07:00:34;2.90;;;1.03;;
287;SDS011;128;48.770;9.198;2023-12-20T07:02:59;3.70;;;1.00;;
287;SDS011;128;48.770;9.198;2023-12-20T07:05:25;1.37;;;1.10;;
287;SDS011;128;48.770;9.198;2023-12-20T07:07:51;2.07;;;1.00;;
287;SDS011;128;48.770;9.198;2023-12-20T07:10:17;1.63;;;1.40;;
287;SDS011;128;48.770;9.198;2023-12-20T07:12:43;1.23;;;0.70;;
287;SDS011;128;48.770;9.198;2023-12-20T07:15:09;1.93;;;0.80;;
287;SDS011;128;48.770;9.198;2023-12-20T07:17:35;1.10;;;0.90;;
287;SDS011;128;48.770;9.198;2023-12-20T07:20:01;1.33;;;0.90;;
287;SDS011;128;48.770;9.198;2023-12-20T07:22:29;1.43;;;0.90;;
287;SDS011;128;48.770;9.198;2023-12-20T07:24:56;1.77;;;0.90;;
287;SDS011;128;48.770;9.198;2023-12-20T07:27:22;3.63;;;1.50;;
287;SDS011;128;48.770;9.198;2023-12-20T07:29:48;2.90;;;1.77;;
287;SDS011;128;48.770;9.198;2023-12-20T07:32:14;2.80;;;1.70;;
287;SDS011;128;48.770;9.198;2023-12-20T07:34:40;4.93;;;2.83;;
287;SDS011;128;48.770;9.198;2023-12-20T07:37:06;2.20;;;1.27;;
287;SDS011;128;48.770;9.198;2023-12-20T07:39:35;3.90;;;1.70;;
287;SDS011;128;48.770;9.198;2023-12-20T07:42:01;4.27;;;1.60;;
287;SDS011;128;48.770;9.198;2023-12-20T07:44:26;6.37;;;3.63;;
287;SDS011;128;48.770;9.198;2023-12-20T07:46:52;6.20;;;3.80;;
287;SDS011;128;48.770;9.198;2023-12-20T07:49:18;5.63;;;3.40;;
287;SDS011;128;48.770;9.198;2023-12-20T07:51:44;7.43;;;3.57;;
287;SDS011;128;48.770;9.198;2023-12-20T07:54:10;5.30;;;3.70;;
287;SDS011;128;48.770;9.198;2023-12-20T07:56:36;14.27;;;4.53;;
287;SDS011;128;48.770;9.198;2023-12-20T07:59:04;8.77;;;4.57;;
287;SDS011;128;48.770;9.198;2023-12-20T08:01:30;5.13;;;3.43;;
287;SDS011;128;48.770;9.198;2023-12-20T08:03:56;9.47;;;5.47;;
287;SDS011;128;48.770;9.198;2023-12-20T08:06:22;6.30;;;4.17;;
287;SDS011;128;48.770;9.198;2023-12-20T08:08:48;7.13;;;4.70;;
287;SDS011;128;48.770;9.198;2023-12-20T08:11:14;5.80;;;3.40;;
287;SDS011;128;48.770;9.198;2023-12-20T08:13:40;5.50;;;3.90;;
287;SDS011;128;48.770;9.198;2023-12-20T08:16:06;6.93;;;3.87;;
287;SDS011;128;48.770;9.198;2023-12-20T08:18:32;7.97;;;4.40;;
287;SDS011;128;48.770;9.198;2023-12-20T08:20:58;6.83;;;4.30;;
287;SDS011;128;48.770;9.198;2023-12-20T08:23:25;7.83;;;4.30;;
287;SDS011;128;48.770;9.198;2023-12-20T08:25:51;6.83;;;3.47;;
287;SDS011;128;48.770;9.198;2023-12-20T08:28:17;6.57;;;4.70;;
287;SDS011;128;48.770;9.198;2023-12-20T08:30:43;9.33;;;4.37;;
287;SDS011;128;48.770;9.198;2023-12-20T08:33:09;10.50;;;4.23;;
287;SDS011;128;48.770;9.198;2023-12-20T08:35:40;10.87;;;4.40;;
287;SDS011;128;48.770;9.198;2023-12-20T08:38:06;7.00;;;4.13;;
287;SDS011;128;48.770;9.198;2023-12-20T08:40:32;7.70;;;3.93;;
287;SDS011;128;48.770;9.198;2023-12-20T08:42:58;5.73;;;3.50;;
287;SDS011;128;48.770;9.198;2023-12-20T08:45:24;7.90;;;4.10;;
287;SDS011;128;48.770;9.198;2023-12-20T08:47:50;6.83;;;3.67;;
287;SDS011;128;48.770;9.198;2023-12-20T08:50:16;6.07;;;3.70;;
287;SDS011;128;48.770;9.198;2023-12-20T08:52:43;5.70;;;3.87;;
287;SDS011;128;48.770;9.198;2023-12-20T08:55:09;6.37;;;3.90;;
287;SDS011;128;48.770;9.198;2023-12-20T08:57:35;6.10;;;3.90;;
287;SDS011;128;48.770;9.198;2023-12-20T09:00:01;11.60;;;3.97;;
287;SDS011;128;48.770;9.198;2023-12-20T09:02:28;8.30;;;3.70;;
287;SDS011;128;48.770;9.198;2023-12-20T09:04:54;6.60;;;3.80;;
287;SDS011;128;48.770;9.198;2023-12-20T09:07:23;11.87;;;3.63;;
287;SDS011;128;48.770;9.198;2023-12-20T09:09:50;5.57;;;4.10;;
287;SDS011;128;48.770;9.198;2023-12-20T09:12:17;8.93;;;4.80;;
287;SDS011;128;48.770;9.198;2023-12-20T09:14:43;12.53;;;4.17;;
287;SDS011;128;48.770;9.198;2023-12-20T09:17:09;4.83;;;3.43;;
287;SDS011;128;48.770;9.198;2023-12-20T09:19:37;7.23;;;3.90;;
287;SDS011;128;48.770;9.198;2023-12-20T09:22:03;5.87;;;3.90;;
287;SDS011;128;48.770;9.198;2023-12-20T09:24:29;5.23;;;3.10;;
287;SDS011;128;48.770;9.198;2023-12-20T09:26:55;5.27;;;3.27;;
287;SDS011;128;48.770;9.198;2023-12-20T09:29:21;6.50;;;3.60;;
287;SDS011;128;48.770;9.198;2023-12-20T09:31:47;10.10;;;3.60;;
287;SDS011;128;48.770;9.198;2023-12-20T09:34:14;6.13;;;3.33;;
287;SDS011;128;48.770;9.198;2023-12-20T09:36:40;9.77;;;3.33;;
287;SDS011;128;48.770;9.198;2023-12-20T09:39:11;5.63;;;3.30;;
287;SDS011;128;48.770;9.198;2023-12-20T09:41:37;6.10;;;3.13;;
287;SDS011;128;48.770;9.198;2023-12-20T09:44:04;7.37;;;2.33;;
287;SDS011;128;48.770;9.198;2023-12-20T09:46:31;4.50;;;2.80;;
287;SDS011;128;48.770;9.198;2023-12-20T09:48:59;11.87;;;4.03;;
287;SDS011;128;48.770;9.198;2023-12-20T09:51:29;17.77;;;2.50;;
287;SDS011;128;48.770;9.198;2023-12-20T09:53:54;9.23;;;2.03;;
287;SDS011;128;48.770;9.198;2023-12-20T09:56:22;3.80;;;2.50;;
287;SDS011;128;48.770;9.198;2023-12-20T09:58:48;8.13;;;2.70;;
287;SDS011;128;48.770;9.198;2023-12-20T10:01:14;5.83;;;2.20;;
287;SDS011;128;48.770;9.198;2023-12-20T10:03:41;8.40;;;2.03;;
287;SDS011;128;48.770;9.198;2023-12-20T10:06:08;4.47;;;2.00;;
287;SDS011;128;48.770;9.198;2023-12-20T10:08:34;12.00;;;2.30;;
287;SDS011;128;48.770;9.198;2023-12-20T10:11:00;8.70;;;2.53;;
287;SDS011;128;48.770;9.198;2023-12-20T10:13:28;6.47;;;2.53;;
287;SDS011;128;48.770;9.198;2023-12-20T10:15:54;4.27;;;1.70;;
287;SDS011;128;48.770;9.198;2023-12-20T10:18:21;8.87;;;2.23;;
287;SDS011;128;48.770;9.198;2023-12-20T10:20:47;7.53;;;2.13;;
287;SDS011;128;48.770;9.198;2023-12-20T10:23:13;9.13;;;3.00;;
287;SDS011;128;48.770;9.198;2023-12-20T10:25:41;7.13;;;2.20;;
287;SDS011;128;48.770;9.198;2023-12-20T10:28:13;8.30;;;2.67;;
287;SDS011;128;48.770;9.198;2023-12-20T10:30:42;6.00;;;2.00;;
287;SDS011;128;48.770;9.198;2023-12-20T10:33:08;10.77;;;3.37;;
287;SDS011;128;48.770;9.198;2023-12-20T10:35:34;13.13;;;2.90;;
287;SDS011;128;48.770;9.198;2023-12-20T10:38:02;5.07;;;2.40;;
287;SDS011;128;48.770;9.198;2023-12-20T10:40:29;6.97;;;3.00;;
287;SDS011;128;48.770;9.198;2023-12-20T10:42:55;10.20;;;4.03;;
287;SDS011;128;48.770;9.198;2023-12-20T10:45:22;6.50;;;2.43;;
287;SDS011;128;48.770;9.198;2023-12-20T10:47:48;12.03;;;4.77;;
287;SDS011;128;48.770;9.198;2023-12-20T10:50:15;6.73;;;2.83;;
287;SDS011;128;48.770;9.198;2023-12-20T10:52:42;6.20;;;2.97;;
287;SDS011;128;48.770;9.198;2023-12-20T10:55:08;12.37;;;2.50;;
287;SDS011;128;48.770;9.198;2023-12-20T10:57:34;10.70;;;4.30;;
287;SDS011;128;48.770;9.198;2023-12-20T11:00:02;7.00;;;2.20;;
287;SDS011;128;48.770;9.198;2023-12-20T11:02:33;4.37;;;2.73;;
287;SDS011;128;48.770;9.198;2023-12-20T11:07:32;3.90;;;1.93;;
287;SDS011;128;48.770;9.198;2023-12-20T11:10:03;9.00;;;2.30;;
287;SDS011;128;48.770;9.198;2023-12-20T11:12:52;14.07;;;2.37;;
287;SDS011;128;48.770;9.198;2023-12-20T11:15:19;7.23;;;1.70;;
287;SDS011;128;48.770;9.198;2023-12-20T11:17:45;6.50;;;2.00;;
287;SDS011;128;48.770;9.198;2023-12-20T11:20:11;16.80;;;2.53;;
287;SDS011;128;48.770;9.198;2023-12-20T11:22:38;11.80;;;1.80;;
287;SDS011;128;48.770;9.198;2023-12-20T11:25:10;12.27;;;2.60;;
287;SDS011;128;48.770;9.198;2023-12-20T11:27:36;5.27;;;2.37;;
287;SDS011;128;48.770;9.198;2023-12-20T11:30:03;3.93;;;2.03;;
287;SDS011;128;48.770;9.198;2023-12-20T11:32:34;5.57;;;1.57;;
287;SDS011;128;48.770;9.198;2023-12-20T11:35:17;5.20;;;1.80;;
287;SDS011;128;48.770;9.198;2023-12-20T11:37:44;6.20;;;1.70;;
287;SDS011;128;48.770;9.198;2023-12-20T11:40:13;5.60;;;1.83;;
287;SDS011;128;48.770;9.198;2023-12-20T11:42:40;8.50;;;2.20;;
287;SDS011;128;48.770;9.198;2023-12-20T11:45:24;6.00;;;2.23;;
287;SDS011;128;48.770;9.198;2023-12-20T11:47:51;10.03;;;1.87;;
287;SDS011;128;48.770;9.198;2023-12-20T11:50:19;9.43;;;1.80;;
287;SDS011;128;48.770;9.198;2023-12-20T11:52:45;10.80;;;2.60;;
287;SDS011;128;48.770;9.198;2023-12-20T11:55:11;5.90;;;2.27;;
287;SDS011;128;48.770;9.198;2023-12-20T11:57:37;6.33;;;2.17;;
287;SDS011;128;48.770;9.198;2023-12-20T12:00:03;3.07;;;1.83;;
287;SDS011;128;48.770;9.198;2023-12-20T12:02:31;12.77;;;3.03;;
287;SDS011;128;48.770;9.198;2023-12-20T12:04:57;7.60;;;2.47;;
287;SDS011;128;48.770;9.198;2023-12-20T12:07:23;11.13;;;2.77;;
287;SDS011;128;48.770;9.198;2023-12-20T12:09:49;13.83;;;2.67;;
287;SDS011;128;48.770;9.198;2023-12-20T12:12:16;5.97;;;1.97;;
287;SDS011;128;48.770;9.198;2023-12-20T12:14:42;5.37;;;2.07;;
287;SDS011;128;48.770;9.198;2023-12-20T12:17:10;9.47;;;1.73;;
287;SDS011;128;48.770;9.198;2023-12-20T12:19:36;5.73;;;1.87;;
287;SDS011;128;48.770;9.198;2023-12-20T12:24:33;5.60;;;1.97;;
287;SDS011;128;48.770;9.198;2023-12-20T12:26:59;4.83;;;1.80;;
287;SDS011;128;48.770;9.198;2023-12-20T12:29:25;5.93;;;1.90;;
287;SDS011;128;48.770;9.198;2023-12-20T12:31:51;6.60;;;1.90;;
287;SDS011;128;48.770;9.198;2023-12-20T12:34:17;5.30;;;1.93;;
287;SDS011;128;48.770;9.198;2023-12-20T12:36:43;3.20;;;1.57;;
287;SDS011;128;48.770;9.198;2023-12-20T12:39:17;5.27;;;1.97;;
287;SDS011;128;48.770;9.198;2023-12-20T12:41:43;7.70;;;2.03;;
287;SDS011;128;48.770;9.198;2023-12-20T12:44:09;8.33;;;1.70;;
287;SDS011;128;48.770;9.198;2023-12-20T12:46:35;9.53;;;1.57;;
287;SDS011;128;48.770;9.198;2023-12-20T12:49:01;4.77;;;2.03;;
287;SDS011;128;48.770;9.198;2023-12-20T12:51:27;11.40;;;2.40;;
287;SDS011;128;48.770;9.198;2023-12-20T12:53:53;3.40;;;1.80;;
287;SDS011;128;48.770;9.198;2023-12-20T12:56:19;3.57;;;1.73;;
287;SDS011;128;48.770;9.198;2023-12-20T12:58:46;3.07;;;1.80;;
287;SDS011;128;48.770;9.198;2023-12-20T13:01:12;3.10;;;1.80;;
287;SDS011;128;48.770;9.198;2023-12-20T13:03:38;8.90;;;1.93;;
287;SDS011;128;48.770;9.198;2023-12-20T13:06:05;8.47;;;2.40;;
287;SDS011;128;48.770;9.198;2023-12-20T13:08:33;5.07;;;2.10;;
287;SDS011;128;48.770;9.198;2023-12-20T13:10:59;14.87;;;2.27;;
287;SDS011;128;48.770;9.198;2023-12-20T13:13:26;9.30;;;2.47;;
287;SDS011;128;48.770;9.198;2023-12-20T13:15:52;8.53;;;1.80;;
287;SDS011;128;48.770;9.198;2023-12-20T13:18:20;8.07;;;2.10;;
287;SDS011;128;48.770;9.198;2023-12-20T13:20:46;3.87;;;2.37;;
287;SDS011;128;48.770;9.198;2023-12-20T13:23:12;5.87;;;1.90;;
287;SDS011;128;48.770;9.198;2023-12-20T13:25:39;10.30;;;2.03;;
287;SDS011;128;48.770;9.198;2023-12-20T13:28:05;6.10;;;1.50;;
287;SDS011;128;48.770;9.198;2023-12-20T13:30:31;5.37;;;1.83;;
287;SDS011;128;48.770;9.198;2023-12-20T13:32:56;9.00;;;2.33;;
287;SDS011;128;48.770;9.198;2023-12-20T13:35:22;6.50;;;2.33;;
287;SDS011;128;48.770;9.198;2023-12-20T13:37:48;11.13;;;2.67;;
287;SDS011;128;48.770;9.198;2023-12-20T13:40:14;9.93;;;2.00;;
287;SDS011;128;48.770;9.198;2023-12-20T13:42:41;16.07;;;2.87;;
287;SDS011;128;48.770;9.198;2023-12-20T13:45:07;7.57;;;3.73;;
287;SDS011;128;48.770;9.198;2023-12-20T13:47:33;8.40;;;2.67;;
287;SDS011;128;48.770;9.198;2023-12-20T13:49:59;4.33;;;1.33;;
287;SDS011;128;48.770;9.198;2023-12-20T13:52:25;11.20;;;3.33;;
287;SDS011;128;48.770;9.198;2023-12-20T13:54:51;7.77;;;1.60;;
287;SDS011;128;48.770;9.198;2023-12-20T13:57:17;7.27;;;1.87;;
287;SDS011;128;48.770;9.198;2023-12-20T13:59:43;10.10;;;2.60;;
287;SDS011;128;48.770;9.198;2023-12-20T14:02:10;12.60;;;2.80;;
287;SDS011;128;48.770;9.198;2023-12-20T14:04:35;7.80;;;1.73;;
287;SDS011;128;48.770;9.198;2023-12-20T14:07:03;14.97;;;3.50;;
287;SDS011;128;48.770;9.198;2023-12-20T14:09:29;19.17;;;2.77;;
287;SDS011;128;48.770;9.198;2023-12-20T14:11:55;6.77;;;2.03;;
287;SDS011;128;48.770;9.198;2023-12-20T14:14:21;7.37;;;2.33;;
287;SDS011;128;48.770;9.198;2023-12-20T14:16:47;8.20;;;2.20;;
287;SDS011;128;48.770;9.198;2023-12-20T14:19:13;5.07;;;1.87;;
287;SDS011;128;48.770;9.198;2023-12-20T14:21:39;8.43;;;2.20;;
287;SDS011;128;48.770;9.198;2023-12-20T14:24:05;6.30;;;1.60;;
287;SDS011;128;48.770;9.198;2023-12-20T14:26:31;8.43;;;2.00;;
287;SDS011;128;48.770;9.198;2023-12-20T14:28:57;4.67;;;1.13;;
287;SDS011;128;48.770;9.198;2023-12-20T14:31:23;6.67;;;1.60;;
287;SDS011;128;48.770;9.198;2023-12-20T14:33:50;7.40;;;2.00;;
287;SDS011;128;48.770;9.198;2023-12-20T14:36:18;3.53;;;1.40;;
287;SDS011;128;48.770;9.198;2023-12-20T14:38:45;2.80;;;1.47;;
287;SDS011;128;48.770;9.198;2023-12-20T14:41:12;4.10;;;1.53;;
287;SDS011;128;48.770;9.198;2023-12-20T14:43:38;4.83;;;1.83;;
287;SDS011;128;48.770;9.198;2023-12-20T14:46:04;4.03;;;2.00;;
287;SDS011;128;48.770;9.198;2023-12-20T14:48:30;11.60;;;2.40;;
287;SDS011;128;48.770;9.198;2023-12-20T14:50:57;7.50;;;2.00;;
287;SDS011;128;48.770;9.198;2023-12-20T14:53:24;7.27;;;1.97;;
287;SDS011;128;48.770;9.198;2023-12-20T14:55:50;8.70;;;1.83;;
287;SDS011;128;48.770;9.198;2023-12-20T14:58:16;5.10;;;1.63;;
287;SDS011;128;48.770;9.198;2023-12-20T15:00:42;6.03;;;1.90;;
287;SDS011;128;48.770;9.198;2023-12-20T15:03:08;11.63;;;2.17;;
287;SDS011;128;48.770;9.198;2023-12-20T15:05:34;9.17;;;2.20;;
287;SDS011;128;48.770;9.198;2023-12-20T15:08:01;3.97;;;1.53;;
287;SDS011;128;48.770;9.198;2023-12-20T15:10:27;6.87;;;2.33;;
287;SDS011;128;48.770;9.198;2023-12-20T15:12:53;7.27;;;1.80;;
287;SDS011;128;48.770;9.198;2023-12-20T15:15:20;3.57;;;1.57;;
287;SDS011;128;48.770;9.198;2023-12-20T15:17:46;2.80;;;1.50;;
287;SDS011;128;48.770;9.198;2023-12-20T15:20:12;8.30;;;1.70;;
287;SDS011;128;48.770;9.198;2023-12-20T15:22:39;8.93;;;2.03;;
287;SDS011;128;48.770;9.198;2023-12-20T15:25:06;13.90;;;2.13;;
287;SDS011;128;48.770;9.198;2023-12-20T15:27:33;15.67;;;2.00;;
287;SDS011;128;48.770;9.198;2023-12-20T15:30:02;4.37;;;2.00;;
287;SDS011;128;48.770;9.198;2023-12-20T15:32:28;3.30;;;1.50;;
287;SDS011;128;48.770;9.198;2023-12-20T15:34:54;6.80;;;1.80;;
287;SDS011;128;48.770;9.198;2023-12-20T15:37:21;10.60;;;1.80;;
287;SDS011;128;48.770;9.198;2023-12-20T15:39:47;4.73;;;1.70;;
287;SDS011;128;48.770;9.198;2023-12-20T15:42:13;3.10;;;1.53;;
287;SDS011;128;48.770;9.198;2023-12-20T15:44:39;2.33;;;1.40;;